Time;durP1;ratioP1;P1;durP2;ratioP2;P2;SDS_P1;SDS_P2;PMS_P1;PMS_P2;Temp;Humidity;BMP_temperature;BMP_pressure;BME280_temperature;BME280_humidity;BME280_pressure;Samples;Min_cycle;Max_cycle;Signal;HPM_P1;HPM_P2
2021/07/15 00:01:53;;;;;;;9.03;3.57;;;21.60;92.10;;;;;;4999959;28;20210;-85
2021/07/15 00:04:22;;;;;;;6.43;3.87;;;21.60;92.30;;;;;;5026815;28;20559;-86
2021/07/15 00:06:51;;;;;;;8.60;3.90;;;21.50;92.20;;;;;;4992338;28;20260;-84
2021/07/15 00:09:20;;;;;;;5.07;3.47;;;21.60;92.40;;;;;;4998819;28;20689;-84
2021/07/15 00:11:51;;;;;;;7.83;3.40;;;21.50;92.50;;;;;;4997517;28;20254;-85
2021/07/15 00:14:21;;;;;;;5.63;3.20;;;21.50;92.50;;;;;;4994784;28;20293;-86
2021/07/15 00:16:54;;;;;;;6.33;3.60;;;21.50;92.40;;;;;;4995028;28;20219;-84
2021/07/15 00:19:23;;;;;;;6.97;3.73;;;21.50;92.60;;;;;;4996886;28;20278;-86
2021/07/15 00:21:52;;;;;;;7.13;3.90;;;21.40;92.70;;;;;;4998386;28;20222;-84
2021/07/15 00:24:22;;;;;;;6.57;3.63;;;21.40;93.00;;;;;;4998417;28;21184;-86
2021/07/15 00:26:51;;;;;;;6.70;3.83;;;21.30;93.10;;;;;;4989588;28;21035;-87
2021/07/15 00:29:20;;;;;;;8.53;3.60;;;21.30;93.40;;;;;;4995981;28;20265;-87
2021/07/15 00:31:48;;;;;;;6.67;3.80;;;21.30;93.30;;;;;;5009511;28;20295;-85
2021/07/15 00:34:20;;;;;;;6.17;3.37;;;21.30;93.00;;;;;;5023549;28;20290;-86
2021/07/15 00:36:49;;;;;;;6.90;3.63;;;21.30;93.20;;;;;;5006127;28;20305;-87
2021/07/15 00:39:18;;;;;;;5.30;3.33;;;21.30;93.70;;;;;;5005138;28;20203;-83
2021/07/15 00:41:47;;;;;;;7.30;3.80;;;21.20;94.30;;;;;;5001400;28;20664;-84
2021/07/15 00:44:16;;;;;;;5.23;3.20;;;21.10;93.70;;;;;;5003077;28;20217;-85
2021/07/15 00:46:44;;;;;;;6.27;3.40;;;21.10;94.30;;;;;;5013244;28;20196;-85
2021/07/15 00:49:13;;;;;;;5.70;3.73;;;21.00;94.60;;;;;;5007703;28;20386;-84
2021/07/15 00:51:43;;;;;;;5.33;3.43;;;20.90;95.30;;;;;;5013883;28;20222;-84
2021/07/15 00:54:13;;;;;;;5.50;3.13;;;20.90;95.60;;;;;;5012447;28;20500;-85
2021/07/15 00:56:41;;;;;;;4.83;3.40;;;20.80;96.30;;;;;;5005004;28;20203;-84
2021/07/15 00:59:10;;;;;;;7.60;3.80;;;20.80;96.20;;;;;;5012854;28;20206;-85
2021/07/15 01:01:40;;;;;;;6.23;3.30;;;20.70;96.10;;;;;;5007191;28;20191;-87
2021/07/15 01:04:09;;;;;;;3.63;3.03;;;20.70;95.80;;;;;;5006761;28;20204;-85
2021/07/15 01:06:38;;;;;;;5.20;3.13;;;20.70;95.30;;;;;;5015074;28;20183;-85
2021/07/15 01:09:08;;;;;;;3.47;3.00;;;20.80;94.80;;;;;;5003650;28;20372;-84
2021/07/15 01:11:46;;;;;;;3.80;3.00;;;20.80;94.70;;;;;;5017658;28;20227;-86
2021/07/15 01:14:21;;;;;;;3.47;2.77;;;20.70;95.10;;;;;;5009659;28;20214;-85
2021/07/15 01:16:56;;;;;;;4.63;2.93;;;20.70;95.00;;;;;;5004939;28;20215;-85
2021/07/15 01:20:15;;;;;;;5.90;2.87;;;20.70;95.70;;;;;;5007214;28;20257;-86
2021/07/15 01:22:48;;;;;;;5.33;3.00;;;20.60;95.60;;;;;;4955157;28;20207;-82
2021/07/15 01:25:57;;;;;;;5.07;3.03;;;20.60;95.40;;;;;;5024042;28;20196;-86
2021/07/15 01:28:39;;;;;;;3.90;2.50;;;20.60;95.10;;;;;;5016218;28;20208;-83
2021/07/15 01:31:11;;;;;;;4.33;2.67;;;20.60;94.90;;;;;;5027828;28;20211;-86
2021/07/15 01:33:40;;;;;;;3.63;2.60;;;20.60;95.20;;;;;;5014346;28;20223;-84
2021/07/15 01:36:11;;;;;;;4.87;2.90;;;20.60;95.70;;;;;;5003608;28;20199;-85
2021/07/15 01:38:45;;;;;;;5.30;2.70;;;20.60;95.50;;;;;;5024511;28;20192;-86
2021/07/15 01:41:19;;;;;;;4.20;2.60;;;20.60;94.90;;;;;;5024904;28;20215;-85
2021/07/15 01:43:53;;;;;;;4.20;2.73;;;20.60;95.10;;;;;;5012105;28;20459;-85
2021/07/15 01:46:24;;;;;;;4.53;2.50;;;20.60;95.20;;;;;;5019318;28;20259;-86
2021/07/15 01:48:54;;;;;;;4.93;2.50;;;20.60;94.90;;;;;;5029596;28;20211;-84
2021/07/15 01:51:23;;;;;;;4.80;2.83;;;20.60;95.00;;;;;;5022785;28;20284;-85
2021/07/15 01:53:53;;;;;;;5.50;2.70;;;20.60;95.30;;;;;;5025247;28;20211;-85
2021/07/15 01:56:23;;;;;;;3.67;2.80;;;20.60;95.10;;;;;;4996465;28;20215;-85
2021/07/15 01:58:54;;;;;;;4.43;2.60;;;20.60;95.50;;;;;;5016776;28;20238;-84
2021/07/15 02:01:26;;;;;;;4.03;2.80;;;20.50;95.70;;;;;;5021280;28;20196;-85
2021/07/15 02:03:58;;;;;;;5.70;2.70;;;20.50;96.40;;;;;;5021178;28;20231;-85
2021/07/15 02:06:30;;;;;;;4.77;2.80;;;20.50;96.80;;;;;;5013461;28;20305;-84
2021/07/15 02:09:00;;;;;;;4.27;3.00;;;20.50;97.20;;;;;;4990603;28;20217;-84
2021/07/15 02:11:33;;;;;;;4.83;2.87;;;20.60;96.30;;;;;;5006641;28;20588;-83
2021/07/15 02:14:04;;;;;;;4.90;2.80;;;20.60;96.50;;;;;;5018306;28;20219;-83
2021/07/15 02:16:38;;;;;;;6.13;2.83;;;20.70;96.60;;;;;;5016354;28;20920;-86
2021/07/15 02:19:08;;;;;;;4.93;2.80;;;20.60;97.30;;;;;;5028178;28;20253;-85
2021/07/15 02:21:39;;;;;;;4.73;2.93;;;20.50;97.90;;;;;;5021649;28;20188;-86
2021/07/15 02:24:10;;;;;;;4.87;3.10;;;20.50;98.40;;;;;;5023366;28;20200;-85
2021/07/15 02:26:43;;;;;;;6.77;3.30;;;20.60;99.30;;;;;;4993083;28;20454;-85
2021/07/15 02:29:12;;;;;;;6.33;3.07;;;20.80;94.50;;;;;;5016235;28;20184;-85
2021/07/15 02:31:47;;;;;;;5.70;2.73;;;21.00;93.60;;;;;;5024035;28;20524;-86
2021/07/15 02:34:21;;;;;;;5.97;2.40;;;21.20;91.90;;;;;;5022675;28;20342;-83
2021/07/15 02:36:53;;;;;;;5.67;2.93;;;21.50;91.00;;;;;;5021035;28;20210;-85
2021/07/15 02:39:23;;;;;;;4.53;2.77;;;21.70;90.60;;;;;;5006050;28;20203;-84
2021/07/15 02:41:52;;;;;;;4.47;3.20;;;21.90;90.30;;;;;;5000114;28;20220;-86
2021/07/15 02:44:21;;;;;;;6.97;3.13;;;22.10;90.00;;;;;;5003925;28;20191;-86
2021/07/15 02:46:51;;;;;;;6.60;3.80;;;22.20;89.40;;;;;;5011987;28;20212;-84
2021/07/15 02:49:21;;;;;;;9.77;3.58;;;22.30;89.20;;;;;;5009368;28;20204;-87
2021/07/15 02:51:49;;;;;;;10.00;4.75;;;22.30;90.00;;;;;;5001921;28;20216;-85
2021/07/15 02:54:19;;;;;;;12.23;4.95;;;22.10;90.60;;;;;;5001772;28;20254;-85
2021/07/15 02:56:53;;;;;;;9.55;4.82;;;21.80;91.90;;;;;;5002632;28;20920;-85
2021/07/15 02:59:28;;;;;;;12.33;4.83;;;21.50;94.60;;;;;;5004827;28;20219;-87
2021/07/15 03:02:07;;;;;;;16.00;5.50;;;21.30;94.30;;;;;;5003447;28;20207;-86
2021/07/15 03:04:42;;;;;;;12.80;5.80;;;21.00;94.60;;;;;;4994830;28;20644;-85
2021/07/15 03:07:12;;;;;;;12.47;5.57;;;20.90;96.70;;;;;;5001975;28;20206;-85
2021/07/15 03:09:50;;;;;;;17.30;6.07;;;20.80;97.70;;;;;;5009093;28;20216;-85
2021/07/15 03:12:22;;;;;;;13.87;5.23;;;20.70;98.00;;;;;;5003108;28;20211;-84
2021/07/15 03:14:54;;;;;;;17.30;5.70;;;20.70;98.10;;;;;;4998386;28;20210;-84
2021/07/15 03:17:28;;;;;;;12.77;6.17;;;20.60;99.80;;;;;;4995059;28;20211;-85
2021/07/15 03:19:59;;;;;;;13.47;5.47;;;20.60;99.90;;;;;;5009090;28;20207;-87
2021/07/15 03:22:30;;;;;;;13.17;5.33;;;20.60;99.90;;;;;;5020039;28;20202;-85
2021/07/15 03:25:02;;;;;;;12.63;5.20;;;20.60;99.90;;;;;;5012869;28;20203;-85
2021/07/15 03:27:35;;;;;;;14.13;5.60;;;20.60;99.90;;;;;;5005926;28;20203;-85
2021/07/15 03:30:07;;;;;;;16.00;5.47;;;20.70;99.90;;;;;;5005039;28;20866;-86
2021/07/15 03:32:39;;;;;;;13.73;5.77;;;20.70;99.90;;;;;;5001900;28;20967;-85
2021/07/15 03:35:10;;;;;;;13.97;4.77;;;20.80;99.90;;;;;;5001580;28;20187;-85
2021/07/15 03:37:42;;;;;;;11.60;5.40;;;20.80;99.90;;;;;;4981953;28;20210;-84
2021/07/15 03:40:12;;;;;;;11.50;5.00;;;20.90;99.90;;;;;;5006854;28;20195;-86
2021/07/15 03:42:46;;;;;;;13.57;5.83;;;21.00;99.80;;;;;;5001936;28;20203;-85
2021/07/15 03:45:17;;;;;;;10.17;4.90;;;21.10;99.90;;;;;;5005557;28;20187;-85
2021/07/15 03:47:51;;;;;;;9.23;4.17;;;21.20;99.90;;;;;;4987610;28;20223;-84
2021/07/15 03:50:23;;;;;;;8.57;4.33;;;21.30;97.90;;;;;;5011977;28;20235;-86
2021/07/15 03:52:54;;;;;;;8.20;4.40;;;21.30;96.80;;;;;;5022869;28;20510;-83
2021/07/15 03:55:25;;;;;;;9.83;4.23;;;21.40;95.90;;;;;;5013900;28;20195;-83
2021/07/15 03:57:55;;;;;;;10.33;4.67;;;21.40;95.90;;;;;;5010324;28;20214;-84
2021/07/15 04:00:27;;;;;;;10.33;3.97;;;21.40;97.00;;;;;;5013072;28;20261;-85
2021/07/15 04:02:59;;;;;;;9.37;4.53;;;21.40;95.70;;;;;;5020894;28;20374;-86
2021/07/15 04:05:33;;;;;;;7.97;3.70;;;21.50;95.20;;;;;;5004385;28;20210;-87
2021/07/15 04:08:04;;;;;;;6.43;3.80;;;21.50;94.20;;;;;;5020708;28;20205;-86
2021/07/15 04:10:35;;;;;;;10.32;4.50;;;21.50;94.70;;;;;;5004081;28;20200;-86
2021/07/15 04:13:05;;;;;;;8.57;4.50;;;21.50;95.20;;;;;;4980036;28;20929;-85
2021/07/15 04:15:50;;;;;;;12.32;5.13;;;21.50;94.90;;;;;;5006458;28;20280;-86
2021/07/15 04:18:23;;;;;;;9.60;4.20;;;21.60;96.10;;;;;;5000186;28;20917;-84
2021/07/15 04:20:52;;;;;;;11.35;5.15;;;21.50;97.80;;;;;;4987923;28;20218;-83
2021/07/15 04:23:23;;;;;;;9.80;4.72;;;21.50;97.40;;;;;;5007310;28;20222;-85
2021/07/15 04:25:53;;;;;;;14.35;5.13;;;21.40;98.30;;;;;;5015721;28;20186;-84
2021/07/15 04:28:24;;;;;;;9.67;4.83;;;21.30;99.60;;;;;;5026542;28;20199;-84
2021/07/15 04:30:54;;;;;;;12.70;5.23;;;21.20;99.90;;;;;;5019309;28;20260;-84
2021/07/15 04:33:26;;;;;;;10.40;5.33;;;21.10;99.90;;;;;;5005626;28;20223;-84
2021/07/15 04:35:57;;;;;;;8.40;4.87;;;20.90;99.90;;;;;;4990750;28;20218;-84
2021/07/15 04:38:26;;;;;;;11.40;6.13;;;20.80;99.90;;;;;;4997560;28;20404;-83
2021/07/15 04:40:57;;;;;;;11.00;5.53;;;20.70;99.90;;;;;;5001531;28;20230;-85
2021/07/15 04:43:26;;;;;;;10.47;5.57;;;20.50;99.90;;;;;;5001988;28;20206;-84
2021/07/15 04:45:58;;;;;;;12.17;5.47;;;20.40;99.90;;;;;;4998049;28;20207;-83
2021/07/15 04:48:29;;;;;;;11.70;5.60;;;20.40;99.90;;;;;;4996139;28;20204;-86
2021/07/15 04:50:58;;;;;;;12.23;5.17;;;20.40;99.90;;;;;;5005691;28;20246;-84
2021/07/15 04:53:28;;;;;;;10.53;5.00;;;20.50;99.90;;;;;;5016306;28;20227;-84
2021/07/15 04:55:57;;;;;;;9.03;5.13;;;20.50;99.90;;;;;;5011382;28;20662;-84
2021/07/15 04:58:26;;;;;;;7.77;5.00;;;20.50;99.90;;;;;;5018737;28;20624;-82
2021/07/15 05:00:55;;;;;;;10.40;5.37;;;20.60;99.90;;;;;;5000668;28;20204;-84
2021/07/15 05:03:31;;;;;;;10.07;5.10;;;20.80;99.90;;;;;;4985628;28;20211;-86
2021/07/15 05:06:01;;;;;;;11.82;5.13;;;21.10;99.90;;;;;;5013745;28;20211;-84
2021/07/15 05:08:30;;;;;;;10.38;4.97;;;21.30;99.90;;;;;;5012935;28;20569;-86
2021/07/15 05:11:00;;;;;;;10.45;5.10;;;21.60;99.90;;;;;;4998001;28;20227;-85
2021/07/15 05:13:29;;;;;;;9.90;5.03;;;21.90;99.90;;;;;;5001093;28;20359;-84
2021/07/15 05:15:57;;;;;;;12.55;5.28;;;22.20;99.90;;;;;;5000295;28;20756;-85
2021/07/15 05:18:28;;;;;;;8.38;4.13;;;22.50;99.90;;;;;;5003663;28;20263;-86
2021/07/15 05:20:56;;;;;;;9.43;4.60;;;22.70;98.80;;;;;;4996536;28;20215;-87
2021/07/15 05:23:25;;;;;;;9.27;4.55;;;22.80;97.90;;;;;;5008373;28;20305;-85
2021/07/15 05:25:56;;;;;;;8.90;4.28;;;22.80;96.80;;;;;;5009115;28;20237;-87
2021/07/15 05:28:25;;;;;;;7.40;4.35;;;22.70;94.70;;;;;;5011440;28;20585;-85
2021/07/15 05:30:55;;;;;;;5.57;3.70;;;22.80;95.10;;;;;;5008348;28;20211;-87
2021/07/15 05:33:24;;;;;;;7.63;3.60;;;22.80;94.70;;;;;;5017014;28;20545;-85
2021/07/15 05:35:54;;;;;;;6.13;3.45;;;22.60;94.60;;;;;;5027390;28;20202;-85
2021/07/15 05:38:29;;;;;;;9.48;4.40;;;22.60;95.10;;;;;;5001866;28;20779;-86
2021/07/15 05:40:59;;;;;;;9.20;3.53;;;22.60;94.40;;;;;;5001850;28;21153;-86
2021/07/15 05:43:28;;;;;;;8.65;3.40;;;22.50;95.20;;;;;;5002659;28;20211;-85
2021/07/15 05:45:57;;;;;;;5.53;3.67;;;22.60;93.70;;;;;;5000609;28;20208;-87
2021/07/15 05:51:31;;;;;;;6.18;3.38;;;22.70;93.70;;;;;;5013665;28;20206;-86
2021/07/15 05:54:05;;;;;;;9.27;4.20;;;22.80;94.60;;;;;;5002748;28;20287;-85
2021/07/15 05:56:34;;;;;;;8.13;4.15;;;22.80;97.50;;;;;;5012175;28;20581;-86
2021/07/15 05:59:02;;;;;;;9.63;3.97;;;23.00;95.40;;;;;;5016802;28;20213;-85
2021/07/15 06:01:31;;;;;;;9.07;4.40;;;23.20;95.70;;;;;;5006293;28;20502;-85
2021/07/15 06:04:00;;;;;;;8.27;3.47;;;23.40;93.80;;;;;;5006802;28;20207;-85
2021/07/15 06:06:30;;;;;;;6.22;3.30;;;23.50;92.00;;;;;;5007845;28;20425;-83
2021/07/15 06:09:00;;;;;;;6.32;3.45;;;23.50;92.00;;;;;;5015792;28;20211;-83
2021/07/15 06:11:29;;;;;;;7.30;4.05;;;23.50;92.20;;;;;;4993115;28;20215;-85
2021/07/15 06:13:58;;;;;;;8.40;3.60;;;23.60;92.70;;;;;;5009874;28;21989;-84
2021/07/15 06:16:28;;;;;;;5.80;2.95;;;23.70;93.10;;;;;;5017725;28;20519;-85
2021/07/15 06:18:56;;;;;;;6.85;3.78;;;23.80;91.60;;;;;;5018294;28;20476;-84
2021/07/15 06:21:25;;;;;;;6.00;3.72;;;23.70;91.60;;;;;;5003865;28;20551;-84
2021/07/15 06:23:57;;;;;;;7.47;3.85;;;23.70;91.30;;;;;;5003104;28;20219;-85
2021/07/15 06:26:26;;;;;;;8.05;3.60;;;23.80;91.60;;;;;;5000048;28;20207;-85
2021/07/15 06:28:55;;;;;;;5.13;3.40;;;23.90;90.80;;;;;;5000998;28;20208;-84
2021/07/15 06:31:25;;;;;;;6.78;3.83;;;24.00;91.00;;;;;;5000198;28;20579;-84
2021/07/15 06:33:54;;;;;;;7.25;3.60;;;24.10;91.20;;;;;;4999467;28;20207;-86
2021/07/15 06:36:23;;;;;;;9.60;3.30;;;24.20;91.40;;;;;;5002389;28;20219;-86
2021/07/15 06:38:52;;;;;;;8.32;4.05;;;24.30;90.60;;;;;;5010116;28;20191;-86
2021/07/15 06:41:28;;;;;;;9.45;3.92;;;24.50;91.10;;;;;;5011413;28;20216;-83
2021/07/15 06:44:05;;;;;;;7.95;3.88;;;24.60;90.70;;;;;;4995541;28;20548;-86
2021/07/15 06:46:34;;;;;;;8.65;3.83;;;24.90;90.80;;;;;;5006866;28;20257;-87
2021/07/15 06:49:05;;;;;;;9.43;3.75;;;25.00;90.00;;;;;;5009320;28;20199;-84
2021/07/15 06:51:34;;;;;;;6.60;3.50;;;25.20;89.70;;;;;;4989598;28;20475;-83
2021/07/15 06:54:04;;;;;;;5.85;3.70;;;25.20;88.20;;;;;;4993012;28;20681;-82
2021/07/15 06:56:34;;;;;;;6.43;3.47;;;25.30;87.60;;;;;;4992928;28;21291;-86
2021/07/15 06:59:06;;;;;;;5.72;3.42;;;25.30;87.40;;;;;;4991791;28;21001;-83
2021/07/15 07:01:35;;;;;;;5.85;4.15;;;25.20;87.70;;;;;;4989924;28;20230;-85
2021/07/15 07:04:05;;;;;;;5.97;3.70;;;25.20;87.90;;;;;;4996102;28;20204;-84
2021/07/15 07:06:34;;;;;;;8.95;3.78;;;25.30;88.20;;;;;;4992358;28;20199;-84
2021/07/15 07:09:12;;;;;;;8.45;3.83;;;25.40;88.30;;;;;;5002578;28;20203;-87
2021/07/15 07:11:43;;;;;;;10.23;3.75;;;25.40;88.20;;;;;;5000444;28;20234;-86
2021/07/15 07:14:16;;;;;;;11.10;3.97;;;25.50;89.10;;;;;;4978296;28;20236;-85
2021/07/15 07:16:46;;;;;;;5.90;3.95;;;25.80;89.30;;;;;;4983088;28;20713;-84
2021/07/15 07:19:15;;;;;;;7.85;4.20;;;26.00;88.70;;;;;;5001383;28;20199;-84
2021/07/15 07:21:43;;;;;;;7.03;3.58;;;26.20;88.50;;;;;;4991810;28;20222;-82
2021/07/15 07:24:12;;;;;;;7.30;3.60;;;26.40;87.70;;;;;;5001672;28;20199;-85
2021/07/15 07:26:43;;;;;;;6.88;3.50;;;26.60;86.90;;;;;;4995866;28;20208;-87
2021/07/15 07:29:12;;;;;;;7.85;3.67;;;26.50;86.50;;;;;;4998603;28;20207;-86
2021/07/15 07:31:40;;;;;;;7.20;3.63;;;26.40;86.90;;;;;;4989825;28;20294;-84
2021/07/15 07:34:09;;;;;;;9.02;4.00;;;26.50;87.00;;;;;;5008451;28;20199;-85
2021/07/15 07:36:38;;;;;;;7.05;3.88;;;26.80;86.50;;;;;;4998701;28;20247;-83
2021/07/15 07:39:08;;;;;;;7.47;3.80;;;27.00;86.40;;;;;;4989284;28;21106;-85
2021/07/15 07:41:38;;;;;;;7.57;4.00;;;27.00;86.20;;;;;;4980241;28;20211;-83
2021/07/15 07:44:10;;;;;;;11.55;3.85;;;27.00;86.00;;;;;;4999231;28;20212;-83
2021/07/15 07:46:40;;;;;;;7.38;3.78;;;27.10;86.00;;;;;;5003225;28;20575;-85
2021/07/15 07:49:09;;;;;;;8.77;4.13;;;27.10;85.90;;;;;;4999005;28;20298;-84
2021/07/15 07:51:37;;;;;;;8.82;3.70;;;27.10;85.20;;;;;;4996409;28;20246;-84
2021/07/15 07:54:06;;;;;;;6.35;4.25;;;27.00;85.50;;;;;;4985229;28;20222;-85
2021/07/15 07:56:35;;;;;;;6.20;3.95;;;26.90;85.30;;;;;;4981393;28;20503;-84
2021/07/15 07:59:04;;;;;;;9.60;4.40;;;27.00;85.50;;;;;;4979449;28;20208;-84
2021/07/15 08:01:35;;;;;;;9.02;4.00;;;27.20;85.80;;;;;;4981165;28;20207;-84
2021/07/15 08:04:04;;;;;;;9.13;4.00;;;27.50;85.80;;;;;;4989429;28;20520;-84
2021/07/15 08:06:35;;;;;;;6.95;3.58;;;27.60;85.30;;;;;;4996092;28;20207;-83
2021/07/15 08:09:07;;;;;;;10.60;3.95;;;27.60;85.60;;;;;;4983818;28;20734;-85
2021/07/15 08:11:37;;;;;;;9.13;4.18;;;27.90;85.00;;;;;;4984303;28;20222;-83
2021/07/15 08:14:06;;;;;;;6.85;4.07;;;27.80;85.00;;;;;;4986854;28;20214;-85
2021/07/15 08:16:36;;;;;;;12.95;4.45;;;27.90;85.20;;;;;;4986300;28;20238;-83
2021/07/15 08:19:06;;;;;;;6.55;4.18;;;28.10;85.20;;;;;;4990081;28;20333;-83
2021/07/15 08:21:35;;;;;;;10.10;4.00;;;28.40;85.00;;;;;;4986801;28;20207;-83
2021/07/15 08:24:04;;;;;;;6.32;4.03;;;28.60;84.60;;;;;;4996583;28;20330;-83
2021/07/15 08:26:33;;;;;;;12.60;4.50;;;28.60;84.20;;;;;;5004500;28;20208;-83
2021/07/15 08:29:02;;;;;;;7.53;3.78;;;28.80;84.30;;;;;;5007298;28;20458;-84
2021/07/15 08:31:33;;;;;;;8.20;4.00;;;28.90;83.30;;;;;;5004479;28;20501;-83
2021/07/15 08:34:03;;;;;;;6.90;4.25;;;29.30;83.50;;;;;;4996029;28;20318;-85
2021/07/15 08:36:34;;;;;;;10.63;3.63;;;29.70;82.60;;;;;;4988982;28;20231;-83
2021/07/15 08:39:03;;;;;;;7.90;3.95;;;30.00;81.80;;;;;;4986942;28;20294;-85
2021/07/15 08:41:32;;;;;;;9.57;3.88;;;30.20;80.90;;;;;;4994546;28;20998;-83
2021/07/15 08:44:01;;;;;;;7.70;3.92;;;30.40;80.80;;;;;;4999091;28;20223;-83
2021/07/15 08:46:29;;;;;;;5.88;3.83;;;30.60;80.30;;;;;;5002085;28;20525;-85
2021/07/15 08:48:59;;;;;;;9.32;4.10;;;30.70;79.80;;;;;;5008943;28;20200;-83
2021/07/15 08:51:29;;;;;;;8.90;4.30;;;30.70;79.20;;;;;;5010447;28;20975;-82
2021/07/15 08:53:58;;;;;;;7.25;4.10;;;30.40;79.50;;;;;;4989476;28;20207;-83
2021/07/15 08:56:37;;;;;;;11.65;4.50;;;30.10;80.10;;;;;;4989317;28;20230;-83
2021/07/15 08:59:09;;;;;;;7.38;4.07;;;29.80;80.30;;;;;;5002183;28;20183;-85
2021/07/15 09:01:38;;;;;;;8.15;4.28;;;29.70;80.30;;;;;;5001758;28;20211;-84
2021/07/15 09:04:09;;;;;;;8.30;3.95;;;29.50;80.90;;;;;;5004004;28;20232;-85
2021/07/15 09:06:41;;;;;;;8.93;3.95;;;29.40;80.60;;;;;;4987362;28;20362;-85
2021/07/15 09:09:11;;;;;;;7.60;4.30;;;29.20;81.10;;;;;;4982123;28;20798;-82
2021/07/15 09:11:42;;;;;;;7.47;4.35;;;28.90;81.30;;;;;;5000026;28;20261;-84
2021/07/15 09:14:17;;;;;;;9.85;4.18;;;28.70;81.50;;;;;;4988175;28;20268;-83
2021/07/15 09:16:51;;;;;;;7.72;4.53;;;28.50;83.00;;;;;;4990574;28;20222;-81
2021/07/15 09:19:23;;;;;;;8.90;4.53;;;28.60;83.90;;;;;;4982280;28;20304;-82
2021/07/15 09:21:54;;;;;;;6.97;4.28;;;28.60;83.50;;;;;;4982573;28;20215;-85
2021/07/15 09:24:31;;;;;;;7.18;4.40;;;28.50;83.20;;;;;;4982017;28;20520;-83
2021/07/15 09:27:11;;;;;;;7.38;4.50;;;28.40;83.50;;;;;;4981221;28;20207;-83
2021/07/15 09:29:40;;;;;;;8.55;5.32;;;28.20;83.40;;;;;;4996449;28;20277;-84
2021/07/15 09:32:14;;;;;;;8.15;4.50;;;28.10;84.00;;;;;;5009320;28;20211;-82
2021/07/15 09:34:43;;;;;;;8.55;4.72;;;28.20;84.00;;;;;;5014306;28;20463;-81
2021/07/15 09:37:16;;;;;;;8.50;4.53;;;28.40;84.30;;;;;;5016316;28;20341;-82
2021/07/15 09:39:46;;;;;;;7.90;5.05;;;28.70;83.10;;;;;;5011472;28;20510;-83
2021/07/15 09:42:19;;;;;;;9.48;4.30;;;28.90;83.40;;;;;;5014563;28;20232;-83
2021/07/15 09:44:49;;;;;;;6.80;4.63;;;29.10;82.70;;;;;;5003822;28;20207;-83
2021/07/15 09:47:36;;;;;;;9.30;4.38;;;29.30;82.90;;;;;;4995599;28;20206;-84
2021/07/15 09:50:26;;;;;;;7.93;4.60;;;29.40;82.50;;;;;;5005156;28;20218;-83
2021/07/15 09:53:17;;;;;;;9.85;4.70;;;29.40;80.60;;;;;;5003961;28;20207;-83
2021/07/15 09:55:47;;;;;;;10.10;5.35;;;29.30;79.30;;;;;;5009170;28;20203;-85
2021/07/15 09:58:16;;;;;;;7.55;4.90;;;29.30;79.50;;;;;;5006635;28;20242;-84
2021/07/15 10:00:46;;;;;;;10.63;5.50;;;29.30;78.50;;;;;;5005660;28;20274;-82
2021/07/15 10:03:16;;;;;;;10.63;5.20;;;29.40;79.30;;;;;;5011675;28;20230;-84
2021/07/15 10:05:53;;;;;;;11.10;4.82;;;29.30;80.00;;;;;;5013850;28;20408;-82
2021/07/15 10:08:28;;;;;;;8.93;5.40;;;29.30;80.30;;;;;;5013405;28;20215;-85
2021/07/15 10:11:12;;;;;;;8.35;5.25;;;29.60;80.90;;;;;;5021838;28;20187;-84
2021/07/15 10:13:43;;;;;;;10.55;5.78;;;29.80;80.60;;;;;;5023912;28;20204;-86
2021/07/15 10:16:13;;;;;;;10.27;5.68;;;29.70;80.30;;;;;;5019912;28;20199;-85
2021/07/15 10:18:44;;;;;;;9.55;5.38;;;29.60;80.40;;;;;;5018356;28;20186;-85
2021/07/15 10:21:15;;;;;;;9.98;5.30;;;29.50;80.10;;;;;;4997057;28;20318;-86
2021/07/15 10:23:47;;;;;;;8.60;5.53;;;29.50;79.80;;;;;;5011831;28;20230;-83
2021/07/15 10:31:28;;;;;;;9.40;5.70;;;29.20;79.80;;;;;;4881906;29;20250;-83
2021/07/15 10:39:40;;;;;;;10.52;5.63;;;28.60;78.90;;;;;;4817295;29;20688;-85
2021/07/15 10:42:11;;;;;;;10.75;5.47;;;28.40;78.80;;;;;;4814248;29;21278;-83
2021/07/15 10:44:41;;;;;;;9.15;5.85;;;28.40;79.40;;;;;;4802385;29;20246;-84
2021/07/15 12:11:13;;;;;;;13.23;5.20;;;28.10;78.60;;;;;;4710110;30;20422;-89
2021/07/15 13:00:51;;;;;;;10.50;5.47;;;28.10;80.10;;;;;;4733332;29;20762;-86
2021/07/15 14:05:02;;;;;;;8.07;4.78;;;33.50;70.30;;;;;;4585628;30;20369;-84
2021/07/15 14:34:29;;;;;;;8.82;4.97;;;34.50;63.40;;;;;;4726907;30;20339;-86
2021/07/15 15:04:07;;;;;;;13.77;6.18;;;33.20;65.90;;;;;;4586869;31;20216;-83
2021/07/15 15:29:07;;;;;;;12.90;5.53;;;34.10;65.30;;;;;;4657459;30;20228;-85
2021/07/15 15:33:26;;;;;;;6.18;5.05;;;34.10;65.90;;;;;;4644912;30;21416;-84
2021/07/15 15:39:01;;;;;;;9.27;5.50;;;33.40;66.20;;;;;;5798257;23;20241;-85
2021/07/15 15:43:18;;;;;;;9.50;5.57;;;33.20;66.00;;;;;;4829880;29;20307;-83
2021/07/15 16:03:22;;;;;;;8.65;5.32;;;29.70;68.70;;;;;;4481338;31;20221;-86
2021/07/15 17:12:11;;;;;;;8.10;5.00;;;27.80;79.20;;;;;;4927305;28;20216;-84
2021/07/15 17:41:44;;;;;;;8.85;5.40;;;27.20;82.10;;;;;;4724985;30;20322;-83
2021/07/15 18:50:43;;;;;;;10.38;6.40;;;26.40;83.00;;;;;;4763484;29;20245;-89
2021/07/15 19:15:35;;;;;;;10.90;6.72;;;25.80;84.50;;;;;;4619920;30;20241;-83
2021/07/15 19:30:21;;;;;;;11.10;7.75;;;25.30;86.00;;;;;;4876345;29;20225;-85
2021/07/15 19:49:57;;;;;;;12.57;8.43;;;25.00;87.20;;;;;;4678755;30;20219;-87
2021/07/15 20:19:07;;;;;;;10.60;8.15;;;24.60;88.80;;;;;;4636703;30;20251;-86
2021/07/15 21:28:32;;;;;;;11.43;9.50;;;23.60;91.20;;;;;;4532751;31;20583;-84
2021/07/15 21:32:54;;;;;;;11.55;9.57;;;23.50;91.20;;;;;;4518163;31;20302;-83
2021/07/15 22:52:01;;;;;;;19.60;14.45;;;22.80;97.90;;;;;;4620677;30;20766;-91
2021/07/15 23:06:44;;;;;;;19.52;15.68;;;22.60;99.90;;;;;;6013294;23;20353;31
2021/07/15 23:31:11;;;;;;;20.52;15.93;;;22.10;99.90;;;;;;4748903;29;20214;-84
2021/07/15 23:50:47;;;;;;;19.75;15.77;;;22.10;99.90;;;;;;4686081;30;20709;-84
